Time;durP1;ratioP1;P1;durP2;ratioP2;P2;SDS_P1;SDS_P2;PMS_P1;PMS_P2;Temp;Humidity;BMP_temperature;BMP_pressure;BME280_temperature;BME280_humidity;BME280_pressure;Samples;Min_cycle;Max_cycle;Signal;HPM_P1;HPM_P2
2023/05/24 00:01:41;;;;;;;;;;;;;;;29.21;41.91;96416.22;5046440;28;19964;-57
2023/05/24 00:04:10;;;;;;;;;;;;;;;29.59;41.80;96414.22;5049299;28;19971;-60
2023/05/24 00:06:39;;;;;;;;;;;;;;;28.99;42.59;96404.69;5051029;28;19984;-59
2023/05/24 00:09:07;;;;;;;;;;;;;;;28.81;43.42;96405.94;5047764;28;19959;-60
2023/05/24 00:11:35;;;;;;;;;;;;;;;29.55;41.46;96402.22;5045605;28;20345;-60
2023/05/24 00:14:03;;;;;;;;;;;;;;;29.02;42.38;96412.34;5058678;28;20379;-57
2023/05/24 00:16:31;;;;;;;;;;;;;;;28.85;42.41;96409.75;5047989;28;19995;-57
2023/05/24 00:18:59;;;;;;;;;;;;;;;28.10;43.78;96412.41;5038778;28;19967;-61
2023/05/24 00:21:29;;;;;;;;;;;;;;;28.73;43.09;96414.56;5046943;28;19975;-59
2023/05/24 00:23:57;;;;;;;;;;;;;;;28.16;44.37;96410.56;5052358;28;20468;-60
2023/05/24 00:26:25;;;;;;;;;;;;;;;28.23;44.47;96416.59;5050468;28;19951;-56
2023/05/24 00:28:53;;;;;;;;;;;;;;;28.64;43.38;96406.09;5051923;28;19970;-59
2023/05/24 00:31:21;;;;;;;;;;;;;;;28.81;43.25;96397.78;5050475;28;20556;-59
2023/05/24 00:33:50;;;;;;;;;;;;;;;27.88;45.02;96407.06;5048080;28;19956;-55
2023/05/24 00:36:18;;;;;;;;;;;;;;;28.51;44.23;96398.41;5050397;28;19972;-57
2023/05/24 00:38:47;;;;;;;;;;;;;;;28.88;42.79;96392.13;5046175;28;20594;-56
2023/05/24 00:41:15;;;;;;;;;;;;;;;28.99;42.57;96399.25;5042121;28;20483;-56
2023/05/24 00:43:43;;;;;;;;;;;;;;;29.06;42.73;96402.56;5048339;28;19971;-56
2023/05/24 00:46:15;;;;;;;;;;;;;;;28.63;43.33;96393.59;5053475;28;19952;-55
2023/05/24 00:48:43;;;;;;;;;;;;;;;29.18;42.29;96391.47;5050723;28;19955;-58
2023/05/24 00:51:11;;;;;;;;;;;;;;;27.64;45.06;96400.25;5054230;28;19956;-57
2023/05/24 00:53:40;;;;;;;;;;;;;;;27.95;45.44;96397.91;5045626;28;19972;-58
2023/05/24 00:56:09;;;;;;;;;;;;;;;28.59;43.77;96397.91;5047775;28;19952;-54
2023/05/24 00:58:37;;;;;;;;;;;;;;;27.55;45.50;96385.53;5045331;28;19955;-56
2023/05/24 01:01:05;;;;;;;;;;;;;;;28.02;45.03;96395.81;5047450;28;19967;-58
2023/05/24 01:03:34;;;;;;;;;;;;;;;28.41;44.36;96392.88;5047406;28;19960;-59
2023/05/24 01:06:02;;;;;;;;;;;;;;;28.55;44.19;96392.19;5048234;28;19962;-55
2023/05/24 01:08:48;;;;;;;;;;;;;;;28.36;44.28;96394.47;5050150;28;19956;-55
2023/05/24 01:11:21;;;;;;;;;;;;;;;28.97;42.90;96388.63;5046224;28;20356;-56
2023/05/24 01:13:54;;;;;;;;;;;;;;;29.17;42.40;96381.72;5054298;28;19960;-59
2023/05/24 01:16:24;;;;;;;;;;;;;;;29.18;42.28;96380.63;5057578;28;19960;-55
2023/05/24 01:18:54;;;;;;;;;;;;;;;28.22;44.12;96385.13;5043219;28;19968;-54
2023/05/24 01:21:26;;;;;;;;;;;;;;;28.58;43.09;96378.09;5049325;28;20012;-59
2023/05/24 01:23:56;;;;;;;;;;;;;;;28.58;43.27;96388.94;5046435;28;19956;-59
2023/05/24 01:26:29;;;;;;;;;;;;;;;28.45;43.95;96388.56;5055452;28;19971;-57
2023/05/24 01:28:58;;;;;;;;;;;;;;;28.62;43.34;96387.34;5052356;28;19960;-58
2023/05/24 01:31:26;;;;;;;;;;;;;;;28.56;43.19;96380.28;5051791;28;19960;-57
2023/05/24 01:33:55;;;;;;;;;;;;;;;28.86;42.73;96378.81;5053400;28;19971;-58
2023/05/24 01:36:23;;;;;;;;;;;;;;;29.15;42.51;96375.72;5052042;28;19964;-59
2023/05/24 01:38:51;;;;;;;;;;;;;;;28.95;42.54;96379.13;5054282;28;19970;-56
2023/05/24 01:41:22;;;;;;;;;;;;;;;29.33;41.73;96375.25;5051394;28;19963;-58
2023/05/24 01:43:52;;;;;;;;;;;;;;;28.71;42.72;96381.44;5064109;28;19963;-56
2023/05/24 01:46:25;;;;;;;;;;;;;;;28.26;43.75;96383.53;5045746;28;19971;-59
2023/05/24 01:48:55;;;;;;;;;;;;;;;28.54;43.35;96390.56;5046097;28;19927;-58
2023/05/24 01:51:24;;;;;;;;;;;;;;;27.62;44.90;96394.28;5056363;28;19959;-60
2023/05/24 01:53:52;;;;;;;;;;;;;;;28.45;43.55;96391.28;5054930;28;19960;-59
2023/05/24 01:56:20;;;;;;;;;;;;;;;28.47;43.24;96384.53;5053812;28;19994;-55
2023/05/24 01:58:48;;;;;;;;;;;;;;;28.18;43.72;96389.41;5056176;28;19955;-59
2023/05/24 02:01:17;;;;;;;;;;;;;;;28.69;42.70;96389.03;5049440;28;19960;-55
2023/05/24 02:03:46;;;;;;;;;;;;;;;28.45;42.90;96389.41;5055473;28;19966;-57
2023/05/24 02:06:14;;;;;;;;;;;;;;;29.04;42.33;96394.69;5049104;28;20439;-57
2023/05/24 02:08:42;;;;;;;;;;;;;;;29.60;40.91;96388.69;5052642;28;19984;-57
2023/05/24 02:11:10;;;;;;;;;;;;;;;28.46;42.36;96387.50;5055876;28;20399;-59
2023/05/24 02:13:38;;;;;;;;;;;;;;;28.14;43.17;96391.81;5057487;28;19960;-57
2023/05/24 02:16:06;;;;;;;;;;;;;;;28.37;43.08;96389.84;5054415;28;19966;-57
2023/05/24 02:18:34;;;;;;;;;;;;;;;29.03;42.03;96389.53;5054900;28;19970;-58
2023/05/24 02:21:04;;;;;;;;;;;;;;;28.11;43.54;96391.53;5049141;28;19967;-57
2023/05/24 02:23:32;;;;;;;;;;;;;;;27.94;43.51;96386.22;5052996;28;19956;-58
2023/05/24 02:26:00;;;;;;;;;;;;;;;28.11;43.50;96381.53;5048303;28;19959;-58
2023/05/24 02:28:30;;;;;;;;;;;;;;;28.01;43.63;96386.84;5054937;28;19964;-57
2023/05/24 02:30:59;;;;;;;;;;;;;;;27.81;44.00;96378.53;5060049;28;19963;-56
2023/05/24 02:33:28;;;;;;;;;;;;;;;28.13;43.62;96381.25;5048185;28;19963;-60
2023/05/24 02:35:56;;;;;;;;;;;;;;;28.80;42.20;96383.41;5050358;28;19963;-58
2023/05/24 02:38:26;;;;;;;;;;;;;;;28.93;41.90;96378.56;5054727;28;20458;-57
2023/05/24 02:40:54;;;;;;;;;;;;;;;28.10;42.84;96382.56;5041808;28;20442;-55
2023/05/24 02:43:22;;;;;;;;;;;;;;;28.83;41.57;96371.19;5054709;28;19952;-56
2023/05/24 02:45:50;;;;;;;;;;;;;;;28.64;41.97;96381.66;5058495;28;20431;-59
2023/05/24 02:48:18;;;;;;;;;;;;;;;27.14;43.93;96383.16;5057858;28;19952;-58
2023/05/24 02:50:46;;;;;;;;;;;;;;;27.07;44.73;96381.69;5053632;28;19955;-57
2023/05/24 02:53:14;;;;;;;;;;;;;;;26.69;45.12;96381.44;5052503;28;19964;-54
2023/05/24 02:55:45;;;;;;;;;;;;;;;27.16;44.74;96382.91;5055979;28;19955;-55
2023/05/24 02:58:13;;;;;;;;;;;;;;;27.27;44.02;96381.16;5046002;28;19961;-58
2023/05/24 03:00:41;;;;;;;;;;;;;;;27.14;43.72;96379.63;5045231;28;20382;-59
2023/05/24 03:03:10;;;;;;;;;;;;;;;26.82;44.71;96385.69;5055643;28;19964;-58
2023/05/24 03:05:38;;;;;;;;;;;;;;;27.06;43.35;96388.16;5050876;28;19959;-58
2023/05/24 03:08:06;;;;;;;;;;;;;;;27.12;43.33;96382.59;5053444;28;20520;-57
2023/05/24 03:10:34;;;;;;;;;;;;;;;26.87;44.09;96379.50;5054521;28;19968;-58
2023/05/24 03:13:04;;;;;;;;;;;;;;;27.21;43.48;96374.84;5052445;28;19948;-60
2023/05/24 03:15:32;;;;;;;;;;;;;;;26.11;45.56;96379.97;5052795;28;19968;-59
2023/05/24 03:18:00;;;;;;;;;;;;;;;26.27;45.22;96378.34;5043885;28;19952;-61
2023/05/24 03:20:28;;;;;;;;;;;;;;;25.85;46.15;96381.44;5044204;28;19960;-62
2023/05/24 03:22:56;;;;;;;;;;;;;;;26.62;44.79;96379.97;5049811;28;19966;-61
2023/05/24 03:25:26;;;;;;;;;;;;;;;26.73;44.17;96370.94;5055891;28;20440;-60
2023/05/24 03:27:54;;;;;;;;;;;;;;;26.35;45.31;96386.03;5049722;28;20012;-62
2023/05/24 03:30:23;;;;;;;;;;;;;;;26.53;44.67;96379.56;5052780;28;19959;-59
2023/05/24 03:32:51;;;;;;;;;;;;;;;27.03;44.00;96381.38;5050345;28;20439;-58
2023/05/24 03:35:19;;;;;;;;;;;;;;;26.32;45.34;96388.41;5049457;28;19983;-60
2023/05/24 03:37:47;;;;;;;;;;;;;;;27.03;43.90;96392.19;5049744;28;20418;-60
2023/05/24 03:40:15;;;;;;;;;;;;;;;26.88;43.82;96398.22;5045880;28;19964;-60
2023/05/24 03:42:43;;;;;;;;;;;;;;;27.04;43.03;96393.81;5051820;28;20419;-60
2023/05/24 03:45:12;;;;;;;;;;;;;;;27.75;42.04;96395.78;5059549;28;19952;-60
2023/05/24 03:47:47;;;;;;;;;;;;;;;27.73;41.83;96396.00;5061154;28;20062;-60
2023/05/24 03:50:15;;;;;;;;;;;;;;;26.80;43.55;96392.41;5047681;28;20434;-58
2023/05/24 03:52:43;;;;;;;;;;;;;;;27.20;43.20;96389.47;5047876;28;19987;-60
2023/05/24 03:55:13;;;;;;;;;;;;;;;25.38;47.04;96411.28;5050328;28;19958;-60
2023/05/24 03:57:41;;;;;;;;;;;;;;;25.53;47.44;96416.16;5045221;28;19995;-60
2023/05/24 04:00:11;;;;;;;;;;;;;;;26.32;45.40;96412.75;5048755;28;19964;-61
2023/05/24 04:02:39;;;;;;;;;;;;;;;26.15;45.74;96412.72;5043996;28;19956;-59
2023/05/24 04:05:10;;;;;;;;;;;;;;;26.05;45.47;96421.50;5041999;28;19955;-61
2023/05/24 04:07:38;;;;;;;;;;;;;;;25.99;46.13;96425.19;5035764;28;19968;-60
2023/05/24 04:10:06;;;;;;;;;;;;;;;26.65;43.93;96417.34;5037081;28;19987;-59
2023/05/24 04:12:34;;;;;;;;;;;;;;;25.74;46.24;96425.47;5038354;28;19963;-61
2023/05/24 04:15:03;;;;;;;;;;;;;;;25.83;46.59;96417.84;5036206;28;19959;-60
2023/05/24 04:17:33;;;;;;;;;;;;;;;26.21;45.19;96417.97;5036852;28;20015;-61
2023/05/24 04:20:04;;;;;;;;;;;;;;;26.74;44.41;96416.69;5038482;28;20007;-62
2023/05/24 04:22:35;;;;;;;;;;;;;;;26.77;43.89;96419.97;5035814;28;20347;-60
2023/05/24 04:25:03;;;;;;;;;;;;;;;26.39;44.39;96421.50;5040782;28;19967;-60
2023/05/24 04:27:32;;;;;;;;;;;;;;;26.77;43.95;96418.06;5041998;28;20452;-57
2023/05/24 04:30:00;;;;;;;;;;;;;;;26.75;43.15;96412.09;5045907;28;19960;-58
2023/05/24 04:32:29;;;;;;;;;;;;;;;27.14;43.27;96410.22;5043959;28;19956;-58
2023/05/24 04:34:57;;;;;;;;;;;;;;;29.08;39.57;96406.66;5039217;28;19960;-59
2023/05/24 04:37:26;;;;;;;;;;;;;;;29.50;38.00;96404.94;5038774;28;19960;-56
2023/05/24 04:39:55;;;;;;;;;;;;;;;28.97;38.72;96415.78;5043755;28;19971;-60
2023/05/24 04:42:23;;;;;;;;;;;;;;;27.68;41.08;96421.16;5043201;28;20397;-59
2023/05/24 04:44:51;;;;;;;;;;;;;;;27.96;41.17;96422.03;5045327;28;19956;-57
2023/05/24 04:47:19;;;;;;;;;;;;;;;27.54;41.50;96419.13;5046581;28;19967;-60
2023/05/24 04:49:48;;;;;;;;;;;;;;;28.06;40.29;96414.00;5046971;28;19963;-59
2023/05/24 04:52:16;;;;;;;;;;;;;;;28.65;39.75;96424.00;5042839;28;20466;-59
2023/05/24 04:54:44;;;;;;;;;;;;;;;28.29;40.05;96421.00;5042390;28;20530;-59
2023/05/24 04:57:13;;;;;;;;;;;;;;;28.62;38.99;96419.09;5043810;28;19959;-61
2023/05/24 04:59:41;;;;;;;;;;;;;;;27.76;40.65;96425.34;5045382;28;19956;-58
2023/05/24 05:02:09;;;;;;;;;;;;;;;29.22;38.88;96425.22;5039349;28;19963;-60
2023/05/24 05:04:38;;;;;;;;;;;;;;;27.59;40.74;96419.16;5031590;28;19968;-57
2023/05/24 05:07:07;;;;;;;;;;;;;;;28.56;39.44;96426.41;5045286;28;19971;-58
2023/05/24 05:09:35;;;;;;;;;;;;;;;27.74;40.43;96426.66;5032757;28;19964;-61
2023/05/24 05:12:03;;;;;;;;;;;;;;;28.47;39.45;96427.94;5047431;28;19960;-59
2023/05/24 05:14:32;;;;;;;;;;;;;;;28.98;38.46;96419.34;5040153;28;20392;-60
2023/05/24 05:17:00;;;;;;;;;;;;;;;28.31;39.63;96424.25;5040314;28;19956;-57
2023/05/24 05:19:28;;;;;;;;;;;;;;;28.76;39.07;96420.28;5039623;28;19968;-60
2023/05/24 05:21:56;;;;;;;;;;;;;;;29.30;37.91;96421.97;5040368;28;19964;-59
2023/05/24 05:24:24;;;;;;;;;;;;;;;29.35;37.89;96421.97;5046131;28;19974;-60
2023/05/24 05:26:52;;;;;;;;;;;;;;;29.73;37.49;96417.25;5042451;28;19959;-58
2023/05/24 05:29:20;;;;;;;;;;;;;;;29.74;37.08;96422.44;5033483;28;20453;-57
2023/05/24 05:31:52;;;;;;;;;;;;;;;29.69;37.19;96418.88;5043122;28;19949;-58
2023/05/24 05:34:21;;;;;;;;;;;;;;;30.27;36.39;96414.94;5044143;28;19963;-59
2023/05/24 05:36:49;;;;;;;;;;;;;;;30.91;34.47;96408.13;5039046;28;19952;-60
2023/05/24 05:39:17;;;;;;;;;;;;;;;31.33;34.87;96408.84;5044017;28;19955;-59
2023/05/24 05:41:45;;;;;;;;;;;;;;;31.06;34.44;96406.44;5047001;28;19956;-61
2023/05/24 05:44:13;;;;;;;;;;;;;;;31.31;34.32;96406.34;5045864;28;19967;-59
2023/05/24 05:46:44;;;;;;;;;;;;;;;31.78;33.46;96402.34;5035983;28;19960;-60
2023/05/24 05:49:14;;;;;;;;;;;;;;;30.89;34.37;96404.84;5048415;28;19971;-58
2023/05/24 05:51:42;;;;;;;;;;;;;;;32.14;33.17;96402.13;5041469;28;19959;-60
2023/05/24 05:54:14;;;;;;;;;;;;;;;31.24;33.73;96413.19;5047084;28;19964;-58
2023/05/24 05:56:44;;;;;;;;;;;;;;;31.20;34.02;96413.75;5042278;28;19976;-57
2023/05/24 05:59:12;;;;;;;;;;;;;;;30.57;34.50;96407.84;5042964;28;19967;-59
2023/05/24 06:01:41;;;;;;;;;;;;;;;30.83;34.69;96407.84;5048410;28;19974;-61
2023/05/24 06:04:09;;;;;;;;;;;;;;;32.14;33.42;96404.84;5045699;28;20373;-61
2023/05/24 06:06:38;;;;;;;;;;;;;;;32.28;32.54;96407.75;5045854;28;19983;-60
2023/05/24 06:09:07;;;;;;;;;;;;;;;32.07;32.58;96404.38;5046155;28;19968;-59
2023/05/24 06:11:35;;;;;;;;;;;;;;;31.50;33.50;96406.59;5047303;28;20403;-58
2023/05/24 06:14:03;;;;;;;;;;;;;;;31.27;34.18;96402.53;5045570;28;19959;-60
2023/05/24 06:16:31;;;;;;;;;;;;;;;32.14;32.85;96404.84;5047740;28;19967;-61
2023/05/24 06:18:59;;;;;;;;;;;;;;;32.00;32.88;96401.13;5049459;28;19959;-59
2023/05/24 06:21:36;;;;;;;;;;;;;;;32.84;31.71;96399.94;5041058;28;19956;-61
2023/05/24 06:24:08;;;;;;;;;;;;;;;32.97;31.76;96409.41;5045945;28;19968;-61
2023/05/24 06:26:36;;;;;;;;;;;;;;;32.86;31.70;96405.09;5045802;28;20349;-59
2023/05/24 06:29:05;;;;;;;;;;;;;;;32.26;32.70;96399.06;5057912;28;19972;-60
2023/05/24 06:31:34;;;;;;;;;;;;;;;32.16;33.30;96402.66;5043014;28;19960;-59
2023/05/24 06:34:02;;;;;;;;;;;;;;;32.26;32.62;96401.78;5049266;28;20369;-61
2023/05/24 06:36:32;;;;;;;;;;;;;;;32.15;32.22;96410.03;5040247;28;19956;-61
2023/05/24 06:39:01;;;;;;;;;;;;;;;32.08;32.50;96406.81;5049480;28;19956;-61
2023/05/24 06:41:30;;;;;;;;;;;;;;;32.89;31.54;96400.97;5042680;28;19956;-59
2023/05/24 06:43:58;;;;;;;;;;;;;;;32.00;32.60;96412.88;5045696;28;20422;-60
2023/05/24 06:46:26;;;;;;;;;;;;;;;31.16;34.00;96418.13;5044911;28;19971;-57
2023/05/24 06:48:54;;;;;;;;;;;;;;;31.84;33.14;96417.59;5051195;28;19967;-61
2023/05/24 06:51:23;;;;;;;;;;;;;;;31.91;32.72;96401.75;5042150;28;19970;-60
2023/05/24 06:53:51;;;;;;;;;;;;;;;32.46;32.99;96406.31;5040279;28;19960;-60
2023/05/24 06:56:19;;;;;;;;;;;;;;;31.47;33.42;96414.50;5042740;28;19960;-60
2023/05/24 06:58:48;;;;;;;;;;;;;;;32.66;31.90;96414.31;5044615;28;20379;-59
2023/05/24 07:01:17;;;;;;;;;;;;;;;32.94;32.37;96418.13;5049948;28;19967;-61
2023/05/24 07:03:45;;;;;;;;;;;;;;;31.89;33.39;96423.03;5040376;28;19963;-59
2023/05/24 07:06:14;;;;;;;;;;;;;;;32.42;32.62;96416.97;5064239;28;19951;-60
2023/05/24 07:08:42;;;;;;;;;;;;;;;31.93;33.11;96423.28;5045151;28;20401;-61
2023/05/24 07:11:11;;;;;;;;;;;;;;;31.40;34.36;96423.78;5042364;28;19960;-60
2023/05/24 07:13:39;;;;;;;;;;;;;;;31.80;33.67;96419.25;5046010;28;19925;-60
2023/05/24 07:16:08;;;;;;;;;;;;;;;30.66;35.83;96424.44;5050213;28;19959;-61
2023/05/24 07:18:36;;;;;;;;;;;;;;;31.00;34.85;96424.69;5047269;28;19955;-61
2023/05/24 07:21:05;;;;;;;;;;;;;;;30.72;35.09;96418.72;5038464;28;19960;-61
2023/05/24 07:23:34;;;;;;;;;;;;;;;30.33;37.06;96426.63;5045093;28;19955;-59
2023/05/24 07:26:02;;;;;;;;;;;;;;;30.10;36.83;96433.38;5039408;28;20419;-60
2023/05/24 07:28:30;;;;;;;;;;;;;;;30.43;35.70;96431.28;5047315;28;19959;-61
2023/05/24 07:30:58;;;;;;;;;;;;;;;31.42;34.24;96427.06;5045356;28;19952;-61
2023/05/24 07:33:27;;;;;;;;;;;;;;;31.23;34.12;96426.00;5046932;28;19974;-61
2023/05/24 07:35:56;;;;;;;;;;;;;;;32.30;32.58;96428.22;5039278;28;19963;-59
2023/05/24 07:38:24;;;;;;;;;;;;;;;32.13;32.91;96420.41;5045252;28;19960;-60
2023/05/24 07:40:52;;;;;;;;;;;;;;;31.80;33.35;96427.44;5044743;28;19959;-61
2023/05/24 07:43:20;;;;;;;;;;;;;;;32.42;32.38;96432.53;5039496;28;19964;-60
2023/05/24 07:45:48;;;;;;;;;;;;;;;32.63;31.89;96431.28;5043404;28;19956;-59
2023/05/24 07:48:16;;;;;;;;;;;;;;;32.97;31.26;96435.91;5044198;28;19966;-62
2023/05/24 07:50:47;;;;;;;;;;;;;;;33.34;30.72;96435.22;5044891;28;19964;-61
2023/05/24 07:53:15;;;;;;;;;;;;;;;33.63;29.90;96435.19;5041463;28;19982;-61
2023/05/24 07:55:44;;;;;;;;;;;;;;;33.11;29.93;96438.78;5047543;28;19972;-58
2023/05/24 07:58:12;;;;;;;;;;;;;;;32.62;30.81;96440.53;5042218;28;19959;-59
2023/05/24 08:00:40;;;;;;;;;;;;;;;32.18;31.48;96440.59;5042283;28;19952;-61
2023/05/24 08:03:08;;;;;;;;;;;;;;;33.13;29.67;96434.63;5043450;28;19959;-61
2023/05/24 08:05:36;;;;;;;;;;;;;;;34.37;29.26;96424.56;5043320;28;20407;-59
2023/05/24 08:08:06;;;;;;;;;;;;;;;34.15;30.65;96432.59;5041070;28;20379;-61
2023/05/24 08:10:34;;;;;;;;;;;;;;;33.70;30.70;96434.81;5049281;28;19959;-61
2023/05/24 08:13:03;;;;;;;;;;;;;;;33.21;31.50;96441.38;5050122;28;20489;-60
2023/05/24 08:15:32;;;;;;;;;;;;;;;31.91;31.70;96430.94;5042839;28;20396;-59
2023/05/24 08:18:00;;;;;;;;;;;;;;;32.95;30.38;96435.34;5042853;28;19982;-60
2023/05/24 08:20:28;;;;;;;;;;;;;;;33.21;30.36;96439.47;5038702;28;19964;-60
2023/05/24 08:22:56;;;;;;;;;;;;;;;31.90;32.36;96441.03;5047767;28;19967;-60
2023/05/24 08:25:26;;;;;;;;;;;;;;;32.59;31.58;96443.88;5039146;28;19956;-60
2023/05/24 08:27:56;;;;;;;;;;;;;;;31.57;32.85;96439.81;5043786;28;19959;-60
2023/05/24 08:30:24;;;;;;;;;;;;;;;30.80;34.87;96446.50;5044006;28;19959;-60
2023/05/24 08:32:52;;;;;;;;;;;;;;;31.32;33.82;96443.44;5042621;28;19953;-60
2023/05/24 08:35:20;;;;;;;;;;;;;;;30.43;34.89;96442.97;5043049;28;19963;-59
2023/05/24 08:37:49;;;;;;;;;;;;;;;29.89;35.81;96457.00;5047262;28;19952;-61
2023/05/24 08:40:17;;;;;;;;;;;;;;;30.50;33.56;96450.88;5042115;28;19963;-60
2023/05/24 08:42:47;;;;;;;;;;;;;;;30.85;34.15;96443.81;5040954;28;19968;-61
2023/05/24 08:45:15;;;;;;;;;;;;;;;31.13;34.16;96447.81;5047864;28;19956;-60
2023/05/24 08:47:43;;;;;;;;;;;;;;;31.48;33.83;96454.28;5041514;28;19952;-61
2023/05/24 08:50:13;;;;;;;;;;;;;;;30.92;33.45;96457.94;5042890;28;19956;-59
2023/05/24 08:52:41;;;;;;;;;;;;;;;31.17;34.31;96451.63;5035545;28;19920;-60
2023/05/24 08:55:09;;;;;;;;;;;;;;;30.72;34.03;96450.56;5048269;28;19966;-60
2023/05/24 08:57:39;;;;;;;;;;;;;;;31.59;33.20;96455.88;5042467;28;20143;-60
2023/05/24 09:00:11;;;;;;;;;;;;;;;31.98;32.01;96447.81;5047020;28;20407;-60
2023/05/24 09:02:40;;;;;;;;;;;;;;;31.86;32.78;96450.84;5042177;28;19971;-61
2023/05/24 09:05:09;;;;;;;;;;;;;;;30.92;33.36;96450.59;5038215;28;19968;-60
2023/05/24 09:07:37;;;;;;;;;;;;;;;30.79;33.75;96444.88;5046907;28;19960;-61
2023/05/24 09:10:06;;;;;;;;;;;;;;;30.02;34.30;96453.78;5043735;28;19975;-59
2023/05/24 09:12:35;;;;;;;;;;;;;;;30.83;33.24;96437.78;5042953;28;19964;-60
2023/05/24 09:15:06;;;;;;;;;;;;;;;31.36;33.45;96447.25;5048250;28;19951;-60
2023/05/24 09:17:37;;;;;;;;;;;;;;;30.77;34.10;96442.44;5046254;28;19928;-60
2023/05/24 09:20:07;;;;;;;;;;;;;;;31.62;33.35;96452.59;5040420;28;19962;-61
2023/05/24 09:22:36;;;;;;;;;;;;;;;32.17;32.79;96450.69;5046177;28;19986;-59
2023/05/24 09:25:08;;;;;;;;;;;;;;;32.64;30.60;96448.47;5044193;28;19963;-60
2023/05/24 09:27:37;;;;;;;;;;;;;;;32.21;31.57;96442.75;5046615;28;20533;-61
2023/05/24 09:30:08;;;;;;;;;;;;;;;32.09;31.13;96446.66;5046267;28;19959;-59
2023/05/24 09:32:38;;;;;;;;;;;;;;;31.00;32.83;96451.13;5043325;28;19964;-60
2023/05/24 09:35:08;;;;;;;;;;;;;;;30.29;33.33;96458.19;5045337;28;19959;-59
2023/05/24 09:37:37;;;;;;;;;;;;;;;30.76;32.76;96459.84;5046896;28;19956;-59
2023/05/24 09:40:07;;;;;;;;;;;;;;;30.42;33.25;96462.28;5048806;28;19972;-58
2023/05/24 09:42:36;;;;;;;;;;;;;;;30.51;33.21;96458.75;5048382;28;20408;-60
2023/05/24 09:45:07;;;;;;;;;;;;;;;30.01;33.57;96467.66;5048668;28;20563;-58
2023/05/24 09:47:35;;;;;;;;;;;;;;;30.79;33.25;96472.13;5041601;28;19964;-58
2023/05/24 09:50:06;;;;;;;;;;;;;;;30.21;33.61;96470.44;5050959;28;19955;-60
2023/05/24 09:52:36;;;;;;;;;;;;;;;30.96;32.58;96472.63;5043789;28;19952;-58
2023/05/24 09:55:11;;;;;;;;;;;;;;;30.67;33.04;96465.03;5046924;28;19952;-59
2023/05/24 09:57:39;;;;;;;;;;;;;;;30.44;31.87;96460.94;5043160;28;19956;-60
2023/05/24 10:00:16;;;;;;;;;;;;;;;31.25;32.11;96463.84;5039564;28;19964;-59
2023/05/24 10:02:44;;;;;;;;;;;;;;;29.92;32.55;96456.47;5046274;28;19963;-61
2023/05/24 10:05:22;;;;;;;;;;;;;;;29.96;33.17;96462.19;5046996;28;19964;-60
2023/05/24 10:07:50;;;;;;;;;;;;;;;29.08;34.30;96471.03;5050358;28;19936;-57
2023/05/24 10:10:18;;;;;;;;;;;;;;;29.04;35.25;96475.31;5051384;28;19963;-61
2023/05/24 10:12:46;;;;;;;;;;;;;;;29.33;34.26;96476.59;5045627;28;19953;-60
2023/05/24 10:15:14;;;;;;;;;;;;;;;28.83;34.91;96467.00;5044511;28;20002;-60
2023/05/24 10:17:43;;;;;;;;;;;;;;;29.01;34.88;96468.53;5043537;28;19967;-58
2023/05/24 10:20:12;;;;;;;;;;;;;;;29.18;34.25;96459.38;5049515;28;20004;-60
2023/05/24 10:22:43;;;;;;;;;;;;;;;28.77;34.87;96472.69;5043401;28;19960;-59
2023/05/24 10:25:15;;;;;;;;;;;;;;;29.20;34.00;96474.34;5050220;28;19960;-61
2023/05/24 10:27:43;;;;;;;;;;;;;;;29.62;33.11;96472.66;5048338;28;19956;-62
2023/05/24 10:30:12;;;;;;;;;;;;;;;30.66;32.46;96460.69;5049614;28;19955;-60
2023/05/24 10:32:41;;;;;;;;;;;;;;;29.93;32.92;96471.69;5042802;28;19951;-60
2023/05/24 10:35:11;;;;;;;;;;;;;;;30.50;31.13;96475.38;5049839;28;19969;-59
2023/05/24 10:37:39;;;;;;;;;;;;;;;30.46;31.31;96480.53;5046199;28;19960;-59
2023/05/24 10:40:09;;;;;;;;;;;;;;;30.32;31.67;96473.16;5044376;28;19960;-60
2023/05/24 10:42:38;;;;;;;;;;;;;;;31.44;32.34;96473.09;5044413;28;19968;-60
2023/05/24 10:45:16;;;;;;;;;;;;;;;31.64;30.41;96478.50;5046335;28;19967;-60
2023/05/24 10:47:44;;;;;;;;;;;;;;;31.01;30.92;96480.81;5041535;28;20658;-59
2023/05/24 10:50:16;;;;;;;;;;;;;;;31.16;31.05;96478.06;5040150;28;19964;-60
2023/05/24 10:52:44;;;;;;;;;;;;;;;32.01;30.70;96482.72;5046185;28;19982;-61
2023/05/24 10:55:14;;;;;;;;;;;;;;;30.58;31.40;96482.16;5046794;28;19964;-61
2023/05/24 10:57:42;;;;;;;;;;;;;;;31.65;30.64;96482.84;5040407;28;19921;-56
2023/05/24 11:00:28;;;;;;;;;;;;;;;30.94;31.43;96483.00;5047093;28;19953;-60
2023/05/24 11:03:00;;;;;;;;;;;;;;;31.75;30.46;96489.34;5049889;28;19955;-61
2023/05/24 11:05:32;;;;;;;;;;;;;;;31.22;30.94;96481.59;5044515;28;19964;-60
2023/05/24 11:08:01;;;;;;;;;;;;;;;31.83;30.64;96483.31;5040424;28;19971;-60
2023/05/24 11:10:32;;;;;;;;;;;;;;;32.51;29.81;96478.03;5041521;28;19963;-61
2023/05/24 11:13:00;;;;;;;;;;;;;;;32.10;29.75;96475.56;5045185;28;19968;-60
2023/05/24 11:15:28;;;;;;;;;;;;;;;31.24;30.67;96484.03;5049741;28;19970;-60
2023/05/24 11:18:16;;;;;;;;;;;;;;;31.52;29.62;96475.28;5035481;28;19959;-60
2023/05/24 11:20:45;;;;;;;;;;;;;;;31.38;31.07;96479.66;5044554;28;19964;-60
2023/05/24 11:23:14;;;;;;;;;;;;;;;32.03;29.29;96479.69;5040808;28;20376;-60
2023/05/24 11:25:43;;;;;;;;;;;;;;;31.44;30.11;96487.56;5047501;28;20015;-60
2023/05/24 11:28:12;;;;;;;;;;;;;;;31.30;29.38;96489.19;5044020;28;19956;-60
2023/05/24 11:30:40;;;;;;;;;;;;;;;32.79;28.40;96478.38;5046648;28;19964;-61
2023/05/24 11:33:16;;;;;;;;;;;;;;;31.60;29.29;96482.88;5045029;28;20331;-61
2023/05/24 11:35:44;;;;;;;;;;;;;;;32.28;28.92;96476.81;5044596;28;19948;-60
2023/05/24 11:38:13;;;;;;;;;;;;;;;31.32;28.90;96476.16;5035763;28;20221;-59
2023/05/24 11:40:43;;;;;;;;;;;;;;;31.85;28.72;96475.66;5045463;28;19965;-60
2023/05/24 11:43:14;;;;;;;;;;;;;;;31.65;27.81;96471.94;5044912;28;20320;-60
2023/05/24 11:45:44;;;;;;;;;;;;;;;31.39;28.94;96465.78;5038703;28;20400;-59
2023/05/24 11:48:12;;;;;;;;;;;;;;;31.33;29.01;96468.78;5042556;28;20030;-60
2023/05/24 11:50:41;;;;;;;;;;;;;;;31.48;28.27;96462.47;5039126;28;20348;-59
2023/05/24 11:53:18;;;;;;;;;;;;;;;32.05;28.33;96452.97;5048640;28;19960;-61
2023/05/24 11:55:47;;;;;;;;;;;;;;;31.61;28.48;96467.31;5045007;28;19948;-59
2023/05/24 11:58:19;;;;;;;;;;;;;;;32.57;27.55;96451.53;5044458;28;19967;-60
2023/05/24 12:00:47;;;;;;;;;;;;;;;32.08;28.24;96461.41;5046396;28;19955;-60
2023/05/24 12:03:16;;;;;;;;;;;;;;;32.69;27.84;96465.63;5035330;28;19971;-60
2023/05/24 12:05:44;;;;;;;;;;;;;;;33.10;27.25;96465.25;5044449;28;19964;-60
2023/05/24 12:08:14;;;;;;;;;;;;;;;35.07;25.84;96456.59;5041677;28;19963;-60
2023/05/24 12:10:42;;;;;;;;;;;;;;;33.32;27.50;96451.91;5047177;28;19960;-60
2023/05/24 12:13:23;;;;;;;;;;;;;;;33.62;26.66;96455.44;5045609;28;20356;-61
2023/05/24 12:15:51;;;;;;;;;;;;;;;33.75;26.48;96459.34;5046151;28;19964;-59
2023/05/24 12:18:23;;;;;;;;;;;;;;;33.96;26.19;96451.69;5041073;28;19960;-58
2023/05/24 12:20:52;;;;;;;;;;;;;;;33.77;26.05;96457.16;5044598;28;19951;-59
2023/05/24 12:23:20;;;;;;;;;;;;;;;33.53;26.22;96459.91;5049524;28;19956;-61
2023/05/24 12:25:48;;;;;;;;;;;;;;;33.08;27.29;96459.28;5043589;28;19952;-57
2023/05/24 12:28:23;;;;;;;;;;;;;;;32.50;27.83;96460.03;5043413;28;19964;-57
2023/05/24 12:30:51;;;;;;;;;;;;;;;31.82;28.71;96463.41;5040994;28;19971;-60
2023/05/24 12:33:19;;;;;;;;;;;;;;;32.87;27.39;96466.84;5044760;28;20404;-60
2023/05/24 12:35:48;;;;;;;;;;;;;;;32.74;27.41;96468.31;5045341;28;19971;-59
2023/05/24 12:38:23;;;;;;;;;;;;;;;32.52;27.24;96457.00;5041491;28;19960;-57
2023/05/24 12:40:52;;;;;;;;;;;;;;;32.79;26.57;96461.97;5041308;28;19952;-60
2023/05/24 12:43:40;;;;;;;;;;;;;;;33.31;26.42;96463.13;5038718;28;19968;-61
2023/05/24 12:46:08;;;;;;;;;;;;;;;33.03;27.09;96464.78;5048153;28;19951;-59
2023/05/24 12:48:36;;;;;;;;;;;;;;;32.62;26.93;96459.66;5044343;28;20594;-59
2023/05/24 12:51:04;;;;;;;;;;;;;;;32.48;25.89;96470.41;5042474;28;20627;-60
2023/05/24 12:53:32;;;;;;;;;;;;;;;32.77;26.40;96469.66;5044835;28;19959;-60
2023/05/24 12:56:00;;;;;;;;;;;;;;;33.08;25.59;96470.22;5043539;28;19951;-59
2023/05/24 12:58:29;;;;;;;;;;;;;;;33.73;25.59;96467.06;5039548;28;19972;-59